createdAt,value
2018-09-02T00:01:08.410Z,99.90
2018-09-02T00:03:37.379Z,99.90
2018-09-02T00:06:06.902Z,99.90
2018-09-02T00:08:35.768Z,99.90
2018-09-02T00:11:05.250Z,99.90
2018-09-02T00:13:37.275Z,99.90
2018-09-02T00:16:25.871Z,99.90
2018-09-02T00:18:57.330Z,99.90
2018-09-02T00:28:35.648Z,99.90
2018-09-02T00:40:40.851Z,99.90
2018-09-02T00:43:16.932Z,99.90
2018-09-02T00:49:25.406Z,99.90
2018-09-02T00:51:57.280Z,99.90
2018-09-02T00:54:26.873Z,99.90
2018-09-02T00:56:56.863Z,99.90
2018-09-02T01:32:36.333Z,99.90
2018-09-02T01:35:05.739Z,99.90
2018-09-02T01:37:34.970Z,99.90
2018-09-02T01:40:06.037Z,99.90
2018-09-02T01:44:01.840Z,99.90
2018-09-02T01:55:59.924Z,99.90
2018-09-02T01:58:29.947Z,99.90
2018-09-02T02:00:59.146Z,99.90
2018-09-02T02:14:35.292Z,99.90
2018-09-02T02:21:10.837Z,99.90
2018-09-02T02:37:42.734Z,99.90
2018-09-02T02:44:01.954Z,99.90
2018-09-02T02:46:31.127Z,99.90
2018-09-02T02:49:00.463Z,99.90
2018-09-02T02:51:29.738Z,99.90
2018-09-02T02:54:41.414Z,99.90
2018-09-02T02:57:10.278Z,99.90
2018-09-02T02:59:43.129Z,99.90
2018-09-02T03:02:12.290Z,99.90
2018-09-02T03:04:42.192Z,99.90
2018-09-02T03:07:11.755Z,99.90
2018-09-02T03:09:40.515Z,99.90
2018-09-02T03:12:10.300Z,99.90
2018-09-02T03:21:09.312Z,99.90
2018-09-02T03:23:38.525Z,99.90
2018-09-02T03:26:07.754Z,99.90
2018-09-02T03:28:36.836Z,99.90
2018-09-02T03:31:06.529Z,99.90
2018-09-02T03:37:12.777Z,99.90
2018-09-02T03:39:42.033Z,99.90
2018-09-02T03:42:28.328Z,99.90
2018-09-02T03:45:31.638Z,99.90
2018-09-02T04:04:34.913Z,99.90
2018-09-02T04:17:13.022Z,99.90
2018-09-02T04:19:44.656Z,99.90
2018-09-02T04:29:13.316Z,99.90
2018-09-02T04:31:42.907Z,99.90
2018-09-02T04:44:32.929Z,99.90
2018-09-02T04:50:01.636Z,99.90
2018-09-02T04:53:02.767Z,99.90
2018-09-02T04:55:32.261Z,99.90
2018-09-02T04:58:03.554Z,99.90
2018-09-02T05:01:15.253Z,99.90
2018-09-02T05:03:44.773Z,99.90
2018-09-02T05:06:35.223Z,99.90
2018-09-02T05:09:29.529Z,99.90
2018-09-02T05:11:58.984Z,99.90
2018-09-02T05:15:11.026Z,99.90
2018-09-02T05:21:40.118Z,99.90
2018-09-02T05:24:34.706Z,99.90
2018-09-02T05:27:27.728Z,99.90
2018-09-02T05:30:33.423Z,99.90
2018-09-02T05:33:02.888Z,99.90
2018-09-02T05:35:32.154Z,99.90
2018-09-02T05:38:01.503Z,99.90
2018-09-02T05:40:31.606Z,99.90
2018-09-02T05:43:01.437Z,99.90
2018-09-02T05:45:42.750Z,99.90
2018-09-02T05:51:36.275Z,99.90
2018-09-02T05:54:05.994Z,99.90
2018-09-02T05:56:35.103Z,99.90
2018-09-02T05:59:04.421Z,99.90
2018-09-02T06:01:33.867Z,99.90
2018-09-02T06:04:03.513Z,99.90
2018-09-02T06:10:02.131Z,99.90
2018-09-02T06:16:28.848Z,99.90
2018-09-02T06:18:59.179Z,99.90
2018-09-02T06:21:41.241Z,99.90
2018-09-02T06:24:14.221Z,99.90
2018-09-02T06:26:43.628Z,99.90
2018-09-02T06:29:12.280Z,99.90
2018-09-02T06:31:42.047Z,99.90
2018-09-02T06:34:10.963Z,99.90
2018-09-02T06:36:40.250Z,99.90
2018-09-02T06:39:10.815Z,99.90
2018-09-02T06:41:39.945Z,99.90
2018-09-02T06:44:09.612Z,99.90
2018-09-02T06:46:38.186Z,99.90
2018-09-02T06:49:07.539Z,99.90
2018-09-02T06:51:37.214Z,99.90
2018-09-02T06:54:06.889Z,99.90
2018-09-02T06:56:36.533Z,99.90
2018-09-02T06:59:55.657Z,99.90
2018-09-02T07:02:28.388Z,99.90
2018-09-02T07:05:46.333Z,99.90
2018-09-02T07:08:15.511Z,99.90
2018-09-02T07:10:44.852Z,99.90
2018-09-02T07:13:14.557Z,99.90
2018-09-02T07:15:57.166Z,99.90
2018-09-02T07:25:09.141Z,99.90
2018-09-02T07:27:44.241Z,99.90
2018-09-02T07:33:36.267Z,99.90
2018-09-02T07:36:05.734Z,99.90
2018-09-02T07:38:39.457Z,99.90
2018-09-02T07:41:08.708Z,99.90
2018-09-02T07:43:38.140Z,99.90
2018-09-02T07:48:59.909Z,99.90
2018-09-02T07:51:33.288Z,99.90
2018-09-02T07:54:05.827Z,99.90
2018-09-02T07:56:35.350Z,99.90
2018-09-02T07:59:05.696Z,99.90
2018-09-02T08:01:37.167Z,99.90
2018-09-02T08:04:12.798Z,99.90
2018-09-02T08:06:42.120Z,99.90
2018-09-02T08:09:12.055Z,99.90
2018-09-02T08:11:41.692Z,99.90
2018-09-02T08:14:11.149Z,99.90
2018-09-02T08:16:40.610Z,99.90
2018-09-02T08:19:09.289Z,99.90
2018-09-02T08:21:38.309Z,99.90
2018-09-02T08:24:08.369Z,99.90
2018-09-02T08:26:37.806Z,99.90
2018-09-02T08:29:07.240Z,99.90
2018-09-02T08:31:38.589Z,99.90
2018-09-02T08:34:37.730Z,99.90
2018-09-02T08:37:07.768Z,99.90
2018-09-02T08:39:40.703Z,99.90
2018-09-02T08:42:10.357Z,99.90
2018-09-02T08:44:39.775Z,99.90
2018-09-02T08:47:08.891Z,99.90
2018-09-02T08:49:37.524Z,99.90
2018-09-02T08:52:07.226Z,99.90
2018-09-02T08:54:36.542Z,99.90
2018-09-02T08:57:30.841Z,99.90
2018-09-02T09:00:01.284Z,99.90
2018-09-02T09:02:36.004Z,99.90
2018-09-02T09:05:05.171Z,99.90
2018-09-02T09:08:03.458Z,99.90
2018-09-02T09:10:32.693Z,99.90
2018-09-02T09:13:01.787Z,99.90
2018-09-02T09:15:32.456Z,99.90
2018-09-02T09:18:01.813Z,99.90
2018-09-02T09:20:31.167Z,99.90
2018-09-02T09:23:06.505Z,99.90
2018-09-02T09:25:35.821Z,99.90
2018-09-02T09:28:05.538Z,99.90
2018-09-02T09:30:35.350Z,99.90
2018-09-02T09:33:06.456Z,99.90
2018-09-02T09:35:35.668Z,99.90
2018-09-02T09:41:10.865Z,99.90
2018-09-02T09:43:43.796Z,99.90
2018-09-02T09:46:12.413Z,99.90
2018-09-02T09:49:19.681Z,99.90
2018-09-02T09:51:59.680Z,99.90
2018-09-02T09:54:29.822Z,99.90
2018-09-02T09:56:59.710Z,99.90
2018-09-02T09:59:33.696Z,99.90
2018-09-02T10:02:41.503Z,99.90
2018-09-02T10:05:11.833Z,99.90
2018-09-02T10:07:40.872Z,99.90
2018-09-02T10:10:09.923Z,99.90
2018-09-02T10:12:40.155Z,99.90
2018-09-02T10:15:09.645Z,99.90
2018-09-02T10:17:38.141Z,99.90
2018-09-02T10:20:07.548Z,99.90
2018-09-02T10:22:36.971Z,99.90
2018-09-02T10:25:06.370Z,99.90
2018-09-02T10:27:35.664Z,99.90
2018-09-02T10:30:05.284Z,99.90
2018-09-02T10:32:34.620Z,99.90
2018-09-02T10:35:27.080Z,99.90
2018-09-02T10:38:08.570Z,99.90
2018-09-02T10:41:02.593Z,99.90
2018-09-02T10:43:43.923Z,99.90
2018-09-02T10:46:12.982Z,99.90
2018-09-02T10:49:01.804Z,99.90
2018-09-02T10:51:59.067Z,99.90
2018-09-02T10:54:36.351Z,99.90
2018-09-02T10:57:17.612Z,99.90
2018-09-02T11:03:05.374Z,99.90
2018-09-02T11:05:39.525Z,99.90
2018-09-02T11:08:29.834Z,99.90
2018-09-02T11:11:14.090Z,99.90
2018-09-02T11:13:43.247Z,99.90
2018-09-02T11:16:12.618Z,99.90
2018-09-02T11:18:41.760Z,99.90
2018-09-02T11:21:11.324Z,99.90
2018-09-02T11:23:40.889Z,99.90
2018-09-02T11:26:10.132Z,99.90
2018-09-02T11:28:39.500Z,99.90
2018-09-02T11:31:09.096Z,99.90
2018-09-02T11:33:38.475Z,99.90
2018-09-02T11:36:08.133Z,99.90
2018-09-02T11:38:39.027Z,99.90
2018-09-02T11:41:09.027Z,99.90
2018-09-02T11:43:38.266Z,99.90
2018-09-02T11:46:07.622Z,99.90
2018-09-02T11:48:40.968Z,99.90
2018-09-02T11:51:10.424Z,99.90
2018-09-02T11:53:39.912Z,99.90
2018-09-02T11:56:09.631Z,99.90
2018-09-02T11:58:39.512Z,99.90
2018-09-02T12:01:08.909Z,99.90
2018-09-02T12:03:38.346Z,99.90
2018-09-02T12:06:07.656Z,99.90
2018-09-02T12:08:37.051Z,99.90
2018-09-02T12:11:06.761Z,99.90
2018-09-02T12:13:36.360Z,99.90
2018-09-02T12:16:05.768Z,99.90
2018-09-02T12:18:35.103Z,99.90
2018-09-02T12:21:04.691Z,99.90
2018-09-02T12:23:34.579Z,99.90
2018-09-02T12:26:07.206Z,99.90
2018-09-02T12:28:36.482Z,99.90
2018-09-02T12:31:05.954Z,99.90
2018-09-02T12:33:35.438Z,99.90
2018-09-02T12:36:09.002Z,99.90
2018-09-02T12:38:38.563Z,99.90
2018-09-02T12:41:08.131Z,99.90
2018-09-02T12:43:37.759Z,99.90
2018-09-02T12:46:07.385Z,99.90
2018-09-02T12:48:37.037Z,99.90
2018-09-02T12:51:08.453Z,99.90
2018-09-02T12:53:37.825Z,99.90
2018-09-02T12:56:07.260Z,99.90
2018-09-02T12:58:38.091Z,99.90
2018-09-02T13:01:07.802Z,99.90
2018-09-02T13:03:38.133Z,99.90
2018-09-02T13:06:08.322Z,99.90
2018-09-02T13:08:59.136Z,99.90
2018-09-02T13:11:32.740Z,99.90
2018-09-02T13:14:03.621Z,99.90
2018-09-02T13:16:32.967Z,99.90
2018-09-02T13:19:02.765Z,99.90
2018-09-02T13:21:32.244Z,99.90
2018-09-02T13:24:02.531Z,99.90
2018-09-02T13:26:32.811Z,99.90
2018-09-02T13:29:02.971Z,99.90
2018-09-02T13:31:32.021Z,99.90
2018-09-02T13:34:06.163Z,99.90
2018-09-02T13:36:37.903Z,99.90
2018-09-02T13:39:07.523Z,99.90
2018-09-02T13:41:38.426Z,99.90
2018-09-02T13:44:08.056Z,99.90
2018-09-02T13:46:38.994Z,99.90
2018-09-02T13:49:08.606Z,99.90
2018-09-02T13:51:42.212Z,99.90
2018-09-02T13:54:11.586Z,99.90
2018-09-02T13:56:40.917Z,99.90
2018-09-02T13:59:10.909Z,99.90
2018-09-02T14:01:40.669Z,99.90
2018-09-02T14:04:09.900Z,99.90
2018-09-02T14:06:39.972Z,99.90
2018-09-02T14:09:09.785Z,99.90
2018-09-02T14:11:39.881Z,99.90
2018-09-02T14:14:10.691Z,99.90
2018-09-02T14:16:40.569Z,99.90
2018-09-02T14:19:10.022Z,99.90
2018-09-02T14:21:39.940Z,99.50
2018-09-02T14:24:09.772Z,99.70
2018-09-02T14:26:38.974Z,99.30
2018-09-02T14:29:08.808Z,99.20
2018-09-02T14:31:38.153Z,99.00
2018-09-02T14:34:07.998Z,98.60
2018-09-02T14:36:37.510Z,99.20
2018-09-02T14:39:11.163Z,98.60
2018-09-02T14:41:41.798Z,98.50
2018-09-02T14:44:11.908Z,98.50
2018-09-02T14:46:41.537Z,98.60
2018-09-02T14:49:10.885Z,99.20
2018-09-02T14:51:40.436Z,98.40
2018-09-02T14:54:10.009Z,98.00
2018-09-02T14:56:39.550Z,97.90
2018-09-02T14:59:09.287Z,97.20
2018-09-02T15:01:38.835Z,98.00
2018-09-02T15:04:08.942Z,98.70
2018-09-02T15:06:38.765Z,98.90
2018-09-02T15:09:10.198Z,96.80
2018-09-02T15:11:40.049Z,97.00
2018-09-02T15:14:09.921Z,96.80
2018-09-02T15:16:39.796Z,97.60
2018-09-02T15:19:09.815Z,97.50
2018-09-02T15:21:39.568Z,96.90
2018-09-02T15:24:09.015Z,96.70
2018-09-02T15:26:40.035Z,96.60
2018-09-02T15:29:10.042Z,96.90
2018-09-02T15:31:40.151Z,96.80
2018-09-02T15:34:09.947Z,96.60
2018-09-02T15:36:39.493Z,95.70
2018-09-02T15:39:09.378Z,95.60
2018-09-02T15:41:38.979Z,94.80
2018-09-02T15:44:09.068Z,94.80
2018-09-02T15:46:38.420Z,94.70
2018-09-02T15:49:07.908Z,94.90
2018-09-02T15:51:37.514Z,94.70
2018-09-02T15:54:07.159Z,94.90
2018-09-02T15:56:36.994Z,95.50
2018-09-02T15:59:06.835Z,95.40
2018-09-02T16:01:36.423Z,95.50
2018-09-02T16:04:08.009Z,95.30
2018-09-02T16:06:39.277Z,96.00
2018-09-02T16:09:11.238Z,96.50
2018-09-02T16:11:40.929Z,96.10
2018-09-02T16:14:11.419Z,95.90
2018-09-02T16:16:41.690Z,97.00
2018-09-02T16:19:11.460Z,96.60
2018-09-02T16:21:40.996Z,96.30
2018-09-02T16:24:14.449Z,96.00
2018-09-02T16:26:44.008Z,96.10
2018-09-02T16:29:13.601Z,96.00
2018-09-02T16:31:43.470Z,95.60
2018-09-02T16:34:13.215Z,94.90
2018-09-02T16:36:43.080Z,94.80
2018-09-02T16:39:12.143Z,95.00
2018-09-02T16:41:41.720Z,95.40
2018-09-02T16:44:12.363Z,95.60
2018-09-02T16:46:42.349Z,95.80
2018-09-02T16:49:12.935Z,95.70
2018-09-02T16:51:43.144Z,95.90
2018-09-02T16:54:12.502Z,95.70
2018-09-02T16:56:41.167Z,95.80
2018-09-02T16:59:11.378Z,95.80
2018-09-02T17:02:03.120Z,96.20
2018-09-02T17:08:41.757Z,95.80
2018-09-02T17:11:12.132Z,96.00
2018-09-02T17:13:41.860Z,95.80
2018-09-02T17:16:42.113Z,95.80
2018-09-02T17:19:15.326Z,96.10
2018-09-02T17:21:44.283Z,95.60
2018-09-02T17:27:35.124Z,95.80
2018-09-02T17:30:08.244Z,95.70
2018-09-02T17:32:37.902Z,95.80
2018-09-02T17:38:12.814Z,96.10
2018-09-02T17:40:42.719Z,96.20
2018-09-02T17:43:13.397Z,96.20
2018-09-02T17:46:04.366Z,96.30
2018-09-02T17:54:18.610Z,96.30
2018-09-02T17:57:14.680Z,96.50
2018-09-02T18:03:06.407Z,96.70
2018-09-02T18:05:35.956Z,96.70
2018-09-02T18:08:07.917Z,96.80
2018-09-02T18:10:40.079Z,96.90
2018-09-02T18:13:10.028Z,96.90
2018-09-02T18:15:40.021Z,97.00
2018-09-02T18:18:12.961Z,97.50
2018-09-02T18:20:42.439Z,97.10
2018-09-02T18:23:12.834Z,97.20
2018-09-02T18:26:01.288Z,97.50
2018-09-02T18:28:36.667Z,97.70
2018-09-02T18:31:06.489Z,97.80
2018-09-02T18:33:36.509Z,98.10
2018-09-02T18:38:58.737Z,98.70
2018-09-02T18:44:19.928Z,99.30
2018-09-02T18:47:07.622Z,99.40
2018-09-02T18:49:41.681Z,99.20
2018-09-02T18:55:08.440Z,99.00
2018-09-02T18:57:38.291Z,99.00
2018-09-02T19:00:09.130Z,99.10
2018-09-02T19:02:38.759Z,99.00
2018-09-02T19:05:08.916Z,98.80
2018-09-02T19:07:44.016Z,98.60
2018-09-02T19:10:13.866Z,98.60
2018-09-02T19:12:43.510Z,98.50
2018-09-02T19:15:13.121Z,98.30
2018-09-02T19:17:43.187Z,98.30
2018-09-02T19:20:12.991Z,98.20
2018-09-02T19:22:43.176Z,98.20
2018-09-02T19:25:13.071Z,98.10
2018-09-02T19:27:42.940Z,98.20
2018-09-02T19:30:12.951Z,98.40
2018-09-02T19:32:42.841Z,98.50
2018-09-02T19:35:16.354Z,98.70
2018-09-02T19:37:45.445Z,98.80
2018-09-02T19:40:16.053Z,98.80
2018-09-02T19:42:45.209Z,98.90
2018-09-02T19:45:14.478Z,98.90
2018-09-02T19:48:20.209Z,99.00
2018-09-02T19:53:51.379Z,99.80
2018-09-02T20:02:37.034Z,99.90
2018-09-02T20:22:05.813Z,99.90
2018-09-02T20:24:48.825Z,99.90
2018-09-02T20:27:18.069Z,99.90
2018-09-02T20:29:47.992Z,99.90
2018-09-02T20:32:17.333Z,99.90
2018-09-02T20:34:47.468Z,99.90
2018-09-02T20:37:17.043Z,99.90
2018-09-02T20:39:46.833Z,99.90
2018-09-02T20:42:15.830Z,99.90
2018-09-02T20:44:45.224Z,99.90
2018-09-02T20:47:15.199Z,99.90
2018-09-02T20:49:44.915Z,99.90
2018-09-02T20:52:34.155Z,99.90
2018-09-02T20:55:04.321Z,99.90
2018-09-02T20:57:33.927Z,99.90
2018-09-02T21:00:15.382Z,99.90
2018-09-02T21:02:46.045Z,99.90
2018-09-02T21:08:49.202Z,99.90
2018-09-02T21:11:17.844Z,99.90
2018-09-02T21:13:46.480Z,99.90
2018-09-02T21:16:15.860Z,99.90
2018-09-02T21:19:03.724Z,99.90
2018-09-02T21:25:11.360Z,99.90
2018-09-02T21:27:41.086Z,99.90
2018-09-02T21:30:15.706Z,99.90
2018-09-02T21:32:44.447Z,99.90
2018-09-02T21:35:59.622Z,99.90
2018-09-02T21:38:57.232Z,99.90
2018-09-02T21:41:38.213Z,99.90
2018-09-02T21:44:42.187Z,99.90
2018-09-02T21:47:11.740Z,99.90
2018-09-02T21:49:41.573Z,99.90
2018-09-02T21:55:39.032Z,99.90
2018-09-02T21:58:09.299Z,99.90
2018-09-02T22:01:02.289Z,99.90
2018-09-02T22:03:32.435Z,99.90
2018-09-02T22:06:02.652Z,99.90
2018-09-02T22:08:32.792Z,99.90
2018-09-02T22:11:06.428Z,99.90
2018-09-02T22:13:36.281Z,99.90
2018-09-02T22:16:06.336Z,99.90
2018-09-02T22:18:36.104Z,99.90
2018-09-02T22:21:09.005Z,99.90
2018-09-02T22:23:40.313Z,99.90
2018-09-02T22:26:11.394Z,99.90
2018-09-02T22:28:41.085Z,99.90
2018-09-02T22:31:10.878Z,99.90
2018-09-02T22:33:45.559Z,99.90
2018-09-02T22:36:48.241Z,99.90
2018-09-02T22:39:17.140Z,99.90
2018-09-02T22:42:29.910Z,99.90
2018-09-02T22:45:04.435Z,99.90
2018-09-02T22:50:42.434Z,99.90
2018-09-02T22:53:11.743Z,99.90
2018-09-02T22:55:41.166Z,99.90
2018-09-02T22:58:40.552Z,99.90
2018-09-02T23:01:12.725Z,99.90
2018-09-02T23:04:01.008Z,99.90
2018-09-02T23:10:19.262Z,99.90
2018-09-02T23:12:48.673Z,99.90
2018-09-02T23:15:17.259Z,99.90
2018-09-02T23:17:47.523Z,99.90
2018-09-02T23:20:16.136Z,99.90
2018-09-02T23:23:01.286Z,99.90
2018-09-02T23:32:03.242Z,99.90
2018-09-02T23:34:32.546Z,99.90
2018-09-02T23:37:11.723Z,99.90
2018-09-02T23:39:41.371Z,99.90
2018-09-02T23:50:00.102Z,99.90
2018-09-02T23:56:32.564Z,99.90
2018-09-02T23:59:03.537Z,99.90
